Buchanan Airport

Jump to: basic info | weather | comments

Related pages: nearby airports | nearby navaids | notams | map

Basic information (top)

Codes: UCN GLBU
Location: lon 5.167650, lat -9.283470, elev 41 ft / 12 m msl
Status: small_airport
Scheduled airline service: no
Links: Wikipedia Mobile

Weather (top)

Current conditions for Roberts International Airport 91nm (168km) NW (rec'd 2014/08/31 01:30Z):

GLRB 310130Z 00000KT 8000 DZ FEW005 BKN011 24/23 Q1014

Airport forecast for Roberts International Airport 91nm (168km) NW (rec'd 2014/08/30 18:51Z):

TAF TAF GLRB 301600Z 3018/3124 08004KT 7000 RA SCT003 BKN014 
      TEMPO 3020/3024 12008KT 5000 FM 310200 02004KT 8000 TSRA SCT004 BKN015 FEW025CB 
      BECMG 3108/3110 20010KT 9999 BKN016

Latest comments (top)

No comments yet for Buchanan Airport

More... (top)

See also NOTAMs and nearby airports and navaids, or visit the Buchanan Airport page at the main OurAirports website..